»·PEaware :: DCM205 KDEN-KSLC

DCM205 :: KDEN-KSLC

FLIGHT INFORMATION

Flight Status: Arrived
Operator:
DotCom
More flights by this operator :: More flights under this callsign
Pilot: Chris S. (2433)
Aircraft: AIRBUS A320
(A320)
More flights by this aircraft type
Origin: KDEN Denver Intl
United States
Destination: KSLC Salt Lake City Intl
United States
More flights between these airports :: More routes between these airports
Route: ZIMMR2 CHNGY EKR LEEHY5
File this flight plan on PilotEdge
Remarks:
Altitude:
(Current/Filed)
36,000ft
Speed:
(Current/Filed)
450kts
Departed: 29-Dec-20 10:58 AM
Arrived: 29-Dec-20 12:02 PM
Distance/Time
Traveled:
339nm/1:04
Distance/Time
To Go:
Arrived

Flight Plot

Page will automatically refresh every two minutes.

Flight plan parsing failed; only flown route is shown


Map Options




Map Legend


Flown Route
Filed Route
Departure Airport
Arrival Airport
Navaid (VOR, NDB)
Fix

Horizontal Profiles

Position Reports

Time Latitude Longitude Heading Altitude Ground
Speed
29-Dec-20 10:30 39.854355 -104.665102 89 5445ft 0kts
29-Dec-20 10:31 39.854355 -104.665102 89 5445ft 0kts
29-Dec-20 10:32 39.854355 -104.665102 89 5445ft 0kts
29-Dec-20 10:33 39.854355 -104.665102 89 5445ft 0kts
29-Dec-20 10:34 39.854355 -104.665102 89 5445ft 0kts
29-Dec-20 10:35 39.854355 -104.665102 89 5445ft 0kts
29-Dec-20 10:36 39.854355 -104.665102 89 5445ft 0kts
29-Dec-20 10:36 39.854355 -104.665102 89 5445ft 0kts
29-Dec-20 10:38 39.854355 -104.665102 89 5445ft 0kts
29-Dec-20 10:39 39.854355 -104.665102 89 5445ft 0kts
29-Dec-20 10:39 39.854355 -104.665102 89 5445ft 0kts
29-Dec-20 10:40 39.854355 -104.665102 89 5445ft 0kts
29-Dec-20 10:41 39.854355 -104.665102 89 5445ft 0kts
29-Dec-20 10:42 39.854355 -104.665102 89 5445ft 0kts
29-Dec-20 10:43 39.854355 -104.665107 89 5445ft 0kts
29-Dec-20 10:44 39.854350 -104.665551 89 5445ft 0kts
29-Dec-20 10:45 39.854350 -104.665551 89 5445ft 0kts
29-Dec-20 10:46 39.854350 -104.665551 89 5445ft 0kts
29-Dec-20 10:47 39.854350 -104.665550 89 5445ft 0kts
29-Dec-20 10:48 39.854350 -104.665550 89 5445ft 0kts
29-Dec-20 10:49 39.854350 -104.665550 89 5445ft 0kts
29-Dec-20 10:50 39.854350 -104.665549 89 5445ft 0kts
29-Dec-20 10:51 39.854350 -104.665549 89 5445ft 0kts
29-Dec-20 10:52 39.854350 -104.665549 89 5445ft 0kts
29-Dec-20 10:53 39.854476 -104.665337 3 5445ft 3kts
29-Dec-20 10:54 39.855861 -104.663648 91 5445ft 12kts
29-Dec-20 10:55 39.858901 -104.662329 0 5445ft 17kts
29-Dec-20 10:56 39.861109 -104.660639 88 5445ft 10kts
29-Dec-20 10:57 39.852234 -104.660246 180 5445ft 121kts
29-Dec-20 10:58 39.807166 -104.668526 222 7133ft 174kts
29-Dec-20 10:59 39.821393 -104.731231 323 7889ft 254kts
29-Dec-20 11:00 39.874384 -104.803830 304 10422ft 290kts
29-Dec-20 11:01 39.926067 -104.899366 300 11946ft 349kts
29-Dec-20 11:02 39.934685 -105.027871 267 14044ft 371kts
29-Dec-20 11:03 39.938350 -105.163010 272 16338ft 377kts
29-Dec-20 11:04 39.945272 -105.301300 276 18247ft 387kts
29-Dec-20 11:05 39.956836 -105.443892 276 19836ft 403kts
29-Dec-20 11:06 39.968177 -105.590775 276 21344ft 413kts
29-Dec-20 11:07 39.977714 -105.742400 274 22628ft 426kts
29-Dec-20 11:08 39.985470 -105.899019 274 23811ft 438kts
29-Dec-20 11:09 39.993266 -106.059250 273 25042ft 444kts
29-Dec-20 11:10 40.000906 -106.220810 273 26277ft 447kts
29-Dec-20 11:11 40.008330 -106.383364 272 27396ft 450kts
29-Dec-20 11:12 40.015577 -106.546046 271 28756ft 443kts
29-Dec-20 11:13 40.022480 -106.707311 271 29854ft 443kts
29-Dec-20 11:14 40.029107 -106.867414 272 30918ft 442kts
29-Dec-20 11:15 40.035548 -107.027511 272 31893ft 442kts
29-Dec-20 11:16 40.041767 -107.187915 272 32813ft 442kts
29-Dec-20 11:17 40.047750 -107.348315 271 33667ft 442kts
29-Dec-20 11:18 40.053501 -107.508185 271 34420ft 441kts
29-Dec-20 11:19 40.059051 -107.668597 271 35117ft 441kts
29-Dec-20 11:20 40.064356 -107.828412 271 35714ft 441kts
29-Dec-20 11:21 40.070340 -107.988474 272 36068ft 441kts
29-Dec-20 11:22 40.077675 -108.148619 272 36083ft 441kts
29-Dec-20 11:23 40.084678 -108.308132 272 36081ft 441kts
29-Dec-20 11:24 40.091500 -108.468408 272 36081ft 441kts
29-Dec-20 11:25 40.098088 -108.628515 272 36112ft 442kts
29-Dec-20 11:26 40.104493 -108.789135 272 36128ft 442kts
29-Dec-20 11:27 40.110675 -108.949327 273 36083ft 441kts
29-Dec-20 11:28 40.116602 -109.108937 273 36081ft 436kts
29-Dec-20 11:29 40.122307 -109.268232 273 36135ft 444kts
29-Dec-20 11:30 40.127851 -109.429912 273 36146ft 445kts
29-Dec-20 11:31 40.133101 -109.591073 273 36142ft 444kts
29-Dec-20 11:32 40.138176 -109.752055 273 36079ft 439kts
29-Dec-20 11:33 40.143022 -109.912933 273 36123ft 446kts
29-Dec-20 11:34 40.147702 -110.075375 272 36128ft 447kts
29-Dec-20 11:35 40.148375 -110.236903 270 36064ft 441kts
29-Dec-20 11:36 40.146909 -110.397193 270 35633ft 441kts
29-Dec-20 11:37 40.145312 -110.558577 271 34708ft 448kts
29-Dec-20 11:38 40.143439 -110.722626 271 33708ft 452kts
29-Dec-20 11:39 40.141342 -110.887101 274 31067ft 452kts
29-Dec-20 11:40 40.139017 -111.051984 274 28206ft 453kts
29-Dec-20 11:41 40.136411 -111.217023 273 25030ft 454kts
29-Dec-20 11:42 40.133577 -111.380767 273 22104ft 445kts
29-Dec-20 11:43 40.133672 -111.540004 282 19339ft 429kts
29-Dec-20 11:44 40.178372 -111.677912 300 18123ft 407kts
29-Dec-20 11:45 40.227064 -111.810131 299 17133ft 402kts
29-Dec-20 11:46 40.280013 -111.938124 315 17011ft 395kts
29-Dec-20 11:47 40.369385 -112.011717 333 15124ft 379kts
29-Dec-20 11:48 40.466505 -112.057675 355 14468ft 364kts
29-Dec-20 11:49 40.569176 -112.069000 354 11129ft 365kts
29-Dec-20 11:50 40.669816 -112.082708 355 10971ft 364kts
29-Dec-20 11:51 40.768283 -112.093639 355 10985ft 323kts
29-Dec-20 11:52 40.848568 -112.103326 355 10972ft 260kts
29-Dec-20 11:53 40.915955 -112.111347 355 10408ft 239kts
29-Dec-20 11:54 40.983038 -112.118918 355 8903ft 243kts
29-Dec-20 11:55 41.037349 -112.089547 78 7973ft 211kts
29-Dec-20 11:56 41.007768 -112.031705 141 7482ft 198kts
29-Dec-20 11:57 40.955097 -112.016509 174 7094ft 197kts
29-Dec-20 11:58 40.902045 -112.010154 175 6112ft 170kts
29-Dec-20 11:59 40.859577 -112.005112 175 5324ft 148kts
29-Dec-20 12:01 40.818573 -112.000483 176 4489ft 146kts
29-Dec-20 12:02 40.788725 -111.997048 174 4241ft 29kts
29-Dec-20 12:03 40.787403 -111.995731 126 4241ft 2kts
29-Dec-20 12:04 40.787332 -111.990616 80 4241ft 27kts
29-Dec-20 12:05 40.788007 -111.985285 87 4241ft 0kts
29-Dec-20 12:06 40.788007 -111.985285 87 4241ft 0kts

Navigation Log

Ident Type
Flight plan parsing failed, navigation log unavailable